createdAt,value
2019-04-28T00:00:11.455Z,77.23
2019-04-28T00:02:42.783Z,77.26
2019-04-28T00:05:12.520Z,77.28
2019-04-28T00:07:42.075Z,77.31
2019-04-28T00:10:12.047Z,77.32
2019-04-28T00:12:41.675Z,77.33
2019-04-28T00:15:12.473Z,77.33
2019-04-28T00:17:42.052Z,77.37
2019-04-28T00:20:13.333Z,77.39
2019-04-28T00:22:47.259Z,77.41
2019-04-28T00:25:18.462Z,77.42
2019-04-28T00:27:48.069Z,77.44
2019-04-28T00:30:17.762Z,77.46
2019-04-28T00:32:47.252Z,77.52
2019-04-28T00:35:16.960Z,77.53
2019-04-28T00:37:46.585Z,77.54
2019-04-28T00:40:17.056Z,77.56
2019-04-28T00:42:46.692Z,77.59
2019-04-28T00:45:16.385Z,77.59
2019-04-28T00:47:46.047Z,77.61
2019-04-28T00:50:15.681Z,77.60
2019-04-28T00:52:45.164Z,77.60
2019-04-28T00:55:14.794Z,77.60
2019-04-28T00:57:44.354Z,77.59
2019-04-28T01:00:16.494Z,77.60
2019-04-28T01:02:46.051Z,77.59
2019-04-28T01:05:15.784Z,77.60
2019-04-28T01:07:45.348Z,77.56
2019-04-28T01:10:15.601Z,77.57
2019-04-28T01:12:46.717Z,77.55
2019-04-28T01:15:20.189Z,77.56
2019-04-28T01:17:57.642Z,77.58
2019-04-28T01:20:27.266Z,77.58
2019-04-28T01:22:56.773Z,77.57
2019-04-28T01:25:27.455Z,77.60
2019-04-28T01:27:57.098Z,77.60
2019-04-28T01:30:46.453Z,77.56
2019-04-28T01:33:17.728Z,77.57
2019-04-28T01:35:49.323Z,77.55
2019-04-28T01:38:20.414Z,77.56
2019-04-28T01:40:50.097Z,77.54
2019-04-28T01:43:19.680Z,77.48
2019-04-28T01:45:50.262Z,77.47
2019-04-28T01:48:20.030Z,77.46
2019-04-28T01:50:50.057Z,77.47
2019-04-28T01:53:20.024Z,77.46
2019-04-28T01:55:49.597Z,77.45
2019-04-28T01:58:20.511Z,77.44
2019-04-28T02:00:50.638Z,77.44
2019-04-28T02:03:20.665Z,77.41
2019-04-28T02:05:50.207Z,77.41
2019-04-28T02:08:20.378Z,77.41
2019-04-28T02:10:50.326Z,77.39
2019-04-28T02:13:20.040Z,77.39
2019-04-28T02:15:50.053Z,77.37
2019-04-28T02:18:20.100Z,77.37
2019-04-28T02:20:51.228Z,77.36
2019-04-28T02:23:27.753Z,77.34
2019-04-28T02:25:57.225Z,77.35
2019-04-28T02:28:26.716Z,77.32
2019-04-28T02:30:56.306Z,77.33
2019-04-28T02:33:25.863Z,77.30
2019-04-28T02:35:55.413Z,77.28
2019-04-28T02:38:24.938Z,77.29
2019-04-28T02:40:54.481Z,77.26
2019-04-28T02:43:23.898Z,77.27
2019-04-28T02:45:53.707Z,77.26
2019-04-28T02:48:24.872Z,77.26
2019-04-28T02:50:56.031Z,77.26
2019-04-28T02:53:30.938Z,77.23
2019-04-28T02:56:01.347Z,77.20
2019-04-28T02:58:31.359Z,77.18
2019-04-28T03:01:11.237Z,77.17
2019-04-28T03:03:32.522Z,77.15
2019-04-28T03:06:02.006Z,77.13
2019-04-28T03:08:31.520Z,77.10
2019-04-28T03:11:01.257Z,77.09
2019-04-28T03:13:31.388Z,77.08
2019-04-28T03:16:01.843Z,77.05
2019-04-28T03:18:31.949Z,77.03
2019-04-28T03:21:04.337Z,77.01
2019-04-28T03:23:33.089Z,77.01
2019-04-28T03:26:21.221Z,77.00
2019-04-28T03:29:00.809Z,76.97
2019-04-28T03:32:06.102Z,76.92
2019-04-28T03:34:12.552Z,76.93
2019-04-28T03:36:40.829Z,76.92
2019-04-28T03:39:11.678Z,76.93
2019-04-28T03:41:41.579Z,76.94
2019-04-28T03:44:11.554Z,76.93
2019-04-28T03:46:44.224Z,76.93
2019-04-28T03:49:15.315Z,76.91
2019-04-28T03:51:44.738Z,76.92
2019-04-28T03:54:14.157Z,76.92
2019-04-28T03:56:43.745Z,76.92
2019-04-28T03:59:13.162Z,76.91
2019-04-28T04:01:55.386Z,76.95
2019-04-28T04:04:13.829Z,76.96
2019-04-28T04:06:43.237Z,76.95
2019-04-28T04:09:12.771Z,76.97
2019-04-28T04:11:43.893Z,76.98
2019-04-28T04:14:15.154Z,76.97
2019-04-28T04:16:54.899Z,77.00
2019-04-28T04:19:24.380Z,76.97
2019-04-28T04:21:53.938Z,76.98
2019-04-28T04:24:23.677Z,76.96
2019-04-28T04:26:53.305Z,76.92
2019-04-28T04:29:23.039Z,76.93
2019-04-28T04:32:09.443Z,76.92
2019-04-28T04:34:23.719Z,76.94
2019-04-28T04:36:53.401Z,76.92
2019-04-28T04:39:22.879Z,76.88
2019-04-28T04:41:52.325Z,76.79
2019-04-28T04:44:21.895Z,76.73
2019-04-28T04:46:52.345Z,76.71
2019-04-28T04:49:21.945Z,76.65
2019-04-28T04:51:51.613Z,76.57
2019-04-28T04:54:21.133Z,76.52
2019-04-28T04:56:50.618Z,76.45
2019-04-28T04:59:20.354Z,76.38
2019-04-28T05:01:53.939Z,76.33
2019-04-28T05:04:34.192Z,76.27
2019-04-28T05:07:05.145Z,76.22
2019-04-28T05:09:41.848Z,76.18
2019-04-28T05:12:11.509Z,76.11
2019-04-28T05:14:50.259Z,76.07
2019-04-28T05:17:20.379Z,75.97
2019-04-28T05:19:50.291Z,75.87
2019-04-28T05:22:21.376Z,75.79
2019-04-28T05:25:10.074Z,75.70
2019-04-28T05:27:40.089Z,75.63
2019-04-28T05:30:13.907Z,75.57
2019-04-28T05:32:49.416Z,75.47
2019-04-28T05:35:17.459Z,75.43
2019-04-28T05:37:49.512Z,75.32
2019-04-28T05:40:20.558Z,75.23
2019-04-28T05:43:00.855Z,75.13
2019-04-28T05:45:32.284Z,75.07
2019-04-28T05:48:02.055Z,75.00
2019-04-28T05:50:33.275Z,74.90
2019-04-28T05:53:10.843Z,74.83
2019-04-28T05:55:42.241Z,74.71
2019-04-28T05:58:19.796Z,74.63
2019-04-28T06:01:07.507Z,74.51
2019-04-28T06:03:40.412Z,74.46
2019-04-28T06:06:10.283Z,74.42
2019-04-28T06:08:56.693Z,74.35
2019-04-28T06:11:30.805Z,74.26
2019-04-28T06:14:01.620Z,74.21
2019-04-28T06:16:31.231Z,74.19
2019-04-28T06:19:00.719Z,74.14
2019-04-28T06:21:30.282Z,74.06
2019-04-28T06:24:00.065Z,73.97
2019-04-28T06:26:32.418Z,73.90
2019-04-28T06:29:01.938Z,73.83
2019-04-28T06:31:32.940Z,73.75
2019-04-28T06:34:02.544Z,73.65
2019-04-28T06:36:32.173Z,73.51
2019-04-28T06:39:01.672Z,73.34
2019-04-28T06:41:32.786Z,73.18
2019-04-28T06:44:02.347Z,73.00
2019-04-28T06:46:31.939Z,72.88
2019-04-28T06:49:01.442Z,72.73
2019-04-28T06:51:31.069Z,72.62
2019-04-28T06:54:00.665Z,72.48
2019-04-28T06:56:30.298Z,72.39
2019-04-28T06:58:59.867Z,72.25
2019-04-28T07:01:29.427Z,72.14
2019-04-28T07:03:58.918Z,72.05
2019-04-28T07:06:28.456Z,71.96
2019-04-28T07:08:57.945Z,71.88
2019-04-28T07:11:27.610Z,71.79
2019-04-28T07:13:57.284Z,71.65
2019-04-28T07:16:26.716Z,71.58
2019-04-28T07:18:56.212Z,71.45
2019-04-28T07:21:42.386Z,71.32
2019-04-28T07:24:11.880Z,71.17
2019-04-28T07:26:41.455Z,71.04
2019-04-28T07:29:10.868Z,70.91
2019-04-28T07:31:40.559Z,70.80
2019-04-28T07:34:11.319Z,70.70
2019-04-28T07:36:41.151Z,70.61
2019-04-28T07:39:10.784Z,70.52
2019-04-28T07:41:40.368Z,70.42
2019-04-28T07:44:09.933Z,70.23
2019-04-28T07:46:39.414Z,70.10
2019-04-28T07:49:09.034Z,70.01
2019-04-28T07:51:52.000Z,69.94
2019-04-28T07:54:22.292Z,69.88
2019-04-28T07:56:51.781Z,69.74
2019-04-28T07:59:21.432Z,69.66
2019-04-28T08:01:51.174Z,69.55
2019-04-28T08:04:20.674Z,69.44
2019-04-28T08:06:51.286Z,69.33
2019-04-28T08:09:20.845Z,69.25
2019-04-28T08:11:50.471Z,69.14
2019-04-28T08:14:20.098Z,69.01
2019-04-28T08:16:49.464Z,68.88
2019-04-28T08:19:18.987Z,68.79
2019-04-28T08:21:48.497Z,68.62
2019-04-28T08:24:17.973Z,68.41
2019-04-28T08:26:47.479Z,68.25
2019-04-28T08:29:16.972Z,68.16
2019-04-28T08:31:53.833Z,67.97
2019-04-28T08:34:23.483Z,67.89
2019-04-28T08:36:52.961Z,67.79
2019-04-28T08:39:25.039Z,67.68
2019-04-28T08:41:53.811Z,67.61
2019-04-28T08:44:23.524Z,67.46
2019-04-28T08:46:53.077Z,67.30
2019-04-28T08:49:22.640Z,67.17
2019-04-28T08:51:53.435Z,67.10
2019-04-28T08:54:23.004Z,67.03
2019-04-28T08:56:52.498Z,66.91
2019-04-28T08:59:21.984Z,66.81
2019-04-28T09:01:51.573Z,66.76
2019-04-28T09:04:21.139Z,66.74
2019-04-28T09:06:50.618Z,66.69
2019-04-28T09:09:21.752Z,66.61
2019-04-28T09:11:51.307Z,66.40
2019-04-28T09:14:20.903Z,66.26
2019-04-28T09:16:50.408Z,66.18
2019-04-28T09:19:19.967Z,66.08
2019-04-28T09:21:49.944Z,65.89
2019-04-28T09:24:26.343Z,65.76
2019-04-28T09:26:55.859Z,65.64
2019-04-28T09:29:25.411Z,65.54
2019-04-28T09:31:56.481Z,65.44
2019-04-28T09:34:28.522Z,65.35
2019-04-28T09:36:57.524Z,65.27
2019-04-28T09:39:43.718Z,65.10
2019-04-28T09:42:33.446Z,65.01
2019-04-28T09:45:04.649Z,64.86
2019-04-28T09:47:34.347Z,64.77
2019-04-28T09:50:05.000Z,64.69
2019-04-28T09:52:35.694Z,64.69
2019-04-28T09:55:07.607Z,64.65
2019-04-28T09:57:37.218Z,64.58
2019-04-28T10:00:09.925Z,64.47
2019-04-28T10:02:39.528Z,64.37
2019-04-28T10:05:10.172Z,64.29
2019-04-28T10:07:39.778Z,64.26
2019-04-28T10:10:09.740Z,64.20
2019-04-28T10:12:39.377Z,64.11
2019-04-28T10:15:10.180Z,64.05
2019-04-28T10:17:39.894Z,63.98
2019-04-28T10:20:09.670Z,63.88
2019-04-28T10:22:39.089Z,63.75
2019-04-28T10:25:09.161Z,63.65
2019-04-28T10:27:41.683Z,63.63
2019-04-28T10:30:14.044Z,63.52
2019-04-28T10:32:43.741Z,63.46
2019-04-28T10:35:13.399Z,63.38
2019-04-28T10:37:45.507Z,63.31
2019-04-28T10:40:18.885Z,63.22
2019-04-28T10:42:48.418Z,63.08
2019-04-28T10:45:20.531Z,63.00
2019-04-28T10:47:50.159Z,62.93
2019-04-28T10:50:20.289Z,62.83
2019-04-28T10:52:49.722Z,62.74
2019-04-28T10:55:19.207Z,62.64
2019-04-28T10:57:48.694Z,62.53
2019-04-28T11:00:20.022Z,62.44
2019-04-28T11:02:49.661Z,62.36
2019-04-28T11:05:29.466Z,62.23
2019-04-28T11:07:59.394Z,62.10
2019-04-28T11:10:28.911Z,61.96
2019-04-28T11:12:58.655Z,61.87
2019-04-28T11:15:37.853Z,61.83
2019-04-28T11:18:09.150Z,61.69
2019-04-28T11:20:38.718Z,61.59
2019-04-28T11:23:08.640Z,61.48
2019-04-28T11:25:39.170Z,61.42
2019-04-28T11:28:08.843Z,61.35
2019-04-28T11:30:38.398Z,61.24
2019-04-28T11:33:26.719Z,61.17
2019-04-28T11:35:57.246Z,61.10
2019-04-28T11:38:26.725Z,61.00
2019-04-28T11:40:56.285Z,60.86
2019-04-28T11:43:26.916Z,60.78
2019-04-28T11:45:56.481Z,60.73
2019-04-28T11:48:26.001Z,60.64
2019-04-28T11:50:55.491Z,60.61
2019-04-28T11:53:24.917Z,60.55
2019-04-28T11:55:54.527Z,60.49
2019-04-28T11:58:24.513Z,60.39
2019-04-28T12:00:54.174Z,60.33
2019-04-28T12:03:23.727Z,60.27
2019-04-28T12:05:53.219Z,60.21
2019-04-28T12:08:23.439Z,60.08
2019-04-28T12:10:54.603Z,59.95
2019-04-28T12:13:37.957Z,59.84
2019-04-28T12:16:09.213Z,59.75
2019-04-28T12:18:43.064Z,59.64
2019-04-28T12:21:12.632Z,59.57
2019-04-28T12:23:43.386Z,59.47
2019-04-28T12:26:12.991Z,59.33
2019-04-28T12:28:42.547Z,59.25
2019-04-28T12:31:12.183Z,59.17
2019-04-28T12:33:41.679Z,59.12
2019-04-28T12:36:11.243Z,59.05
2019-04-28T12:38:40.662Z,58.99
2019-04-28T12:41:10.151Z,58.88
2019-04-28T12:43:39.709Z,58.77
2019-04-28T12:46:09.205Z,58.65
2019-04-28T12:48:38.660Z,58.56
2019-04-28T12:51:08.225Z,58.47
2019-04-28T12:53:39.470Z,58.39
2019-04-28T12:56:09.022Z,58.24
2019-04-28T12:58:39.507Z,58.16
2019-04-28T13:01:29.922Z,58.12
2019-04-28T13:04:12.846Z,58.00
2019-04-28T13:06:44.073Z,57.91
2019-04-28T13:09:14.435Z,57.80
2019-04-28T13:11:44.001Z,57.74
2019-04-28T13:14:13.537Z,57.67
2019-04-28T13:16:43.031Z,57.57
2019-04-28T13:19:12.517Z,57.46
2019-04-28T13:21:41.980Z,57.40
2019-04-28T13:24:11.533Z,57.32
2019-04-28T13:26:41.031Z,57.25
2019-04-28T13:29:10.670Z,57.19
2019-04-28T13:31:40.154Z,57.12
2019-04-28T13:34:11.343Z,57.06
2019-04-28T13:36:40.953Z,57.01
2019-04-28T13:39:12.507Z,56.88
2019-04-28T13:41:41.928Z,56.79
2019-04-28T13:44:13.120Z,56.74
2019-04-28T13:46:42.681Z,56.70
2019-04-28T13:49:13.897Z,56.66
2019-04-28T13:51:43.465Z,56.56
2019-04-28T13:54:14.628Z,56.52
2019-04-28T13:56:44.206Z,56.45
2019-04-28T13:59:15.394Z,56.37
2019-04-28T14:01:52.425Z,56.25
2019-04-28T14:04:26.439Z,56.15
2019-04-28T14:06:56.945Z,56.06
2019-04-28T14:09:27.012Z,55.96
2019-04-28T14:11:56.537Z,55.90
2019-04-28T14:14:26.051Z,55.82
2019-04-28T14:16:56.010Z,55.75
2019-04-28T14:19:25.673Z,55.68
2019-04-28T14:21:55.227Z,55.57
2019-04-28T14:24:24.788Z,55.50
2019-04-28T14:26:54.402Z,55.44
2019-04-28T14:29:23.857Z,55.34
2019-04-28T14:31:53.326Z,55.28
2019-04-28T14:34:22.845Z,55.26
2019-04-28T14:36:52.505Z,55.13
2019-04-28T14:39:22.064Z,55.03
2019-04-28T14:41:51.625Z,54.91
2019-04-28T14:44:21.225Z,54.83
2019-04-28T14:46:50.773Z,54.75
2019-04-28T14:49:20.272Z,54.66
2019-04-28T14:51:49.791Z,54.59
2019-04-28T14:54:19.254Z,54.51
2019-04-28T14:56:48.641Z,54.43
2019-04-28T14:59:19.207Z,54.35
2019-04-28T15:02:07.061Z,54.27
2019-04-28T15:04:53.378Z,54.21
2019-04-28T15:07:39.676Z,54.09
2019-04-28T15:10:17.332Z,54.02
2019-04-28T15:12:46.888Z,53.97
2019-04-28T15:15:16.584Z,53.93
2019-04-28T15:17:47.697Z,53.88
2019-04-28T15:20:17.277Z,53.80
2019-04-28T15:22:46.842Z,53.72
2019-04-28T15:25:16.395Z,53.61
2019-04-28T15:27:45.898Z,53.56
2019-04-28T15:30:15.628Z,53.52
2019-04-28T15:32:45.151Z,53.47
2019-04-28T15:35:14.963Z,53.42
2019-04-28T15:37:44.554Z,53.41
2019-04-28T15:40:14.215Z,53.31
2019-04-28T15:42:43.884Z,53.24
2019-04-28T15:45:13.750Z,53.17
2019-04-28T15:47:43.647Z,53.08
2019-04-28T15:50:13.316Z,53.00
2019-04-28T15:52:42.806Z,52.96
2019-04-28T15:55:14.010Z,52.89
2019-04-28T15:57:43.684Z,52.83
2019-04-28T16:00:22.114Z,52.78
2019-04-28T16:03:01.809Z,52.72
2019-04-28T16:05:31.913Z,52.68
2019-04-28T16:08:08.689Z,52.63
2019-04-28T16:10:41.085Z,52.60
2019-04-28T16:13:10.540Z,52.60
2019-04-28T16:15:40.108Z,52.57
2019-04-28T16:18:09.721Z,52.52
2019-04-28T16:20:39.314Z,52.50
2019-04-28T16:23:08.903Z,52.48
2019-04-28T16:25:41.447Z,52.50
2019-04-28T16:28:11.193Z,52.41
2019-04-28T16:30:40.829Z,52.44
2019-04-28T16:33:10.316Z,52.51
2019-04-28T16:35:39.762Z,52.57
2019-04-28T16:38:09.322Z,52.64
2019-04-28T16:40:39.306Z,52.72
2019-04-28T16:43:10.781Z,52.81
2019-04-28T16:45:40.436Z,52.89
2019-04-28T16:48:09.998Z,52.99
2019-04-28T16:50:39.804Z,53.11
2019-04-28T16:53:09.351Z,53.19
2019-04-28T16:55:46.304Z,53.30
2019-04-28T16:58:32.663Z,53.40
2019-04-28T17:01:03.850Z,53.48
2019-04-28T17:03:34.976Z,53.61
2019-04-28T17:06:04.839Z,53.71
2019-04-28T17:08:34.334Z,53.82
2019-04-28T17:11:03.910Z,53.93
2019-04-28T17:13:33.562Z,54.00
2019-04-28T17:16:03.011Z,54.10
2019-04-28T17:18:32.566Z,54.22
2019-04-28T17:21:01.993Z,54.30
2019-04-28T17:23:31.733Z,54.38
2019-04-28T17:26:01.296Z,54.46
2019-04-28T17:28:30.958Z,54.51
2019-04-28T17:31:00.653Z,54.54
2019-04-28T17:33:30.136Z,54.62
2019-04-28T17:35:59.803Z,54.72
2019-04-28T17:38:29.285Z,54.77
2019-04-28T17:40:58.848Z,54.86
2019-04-28T17:43:28.437Z,54.91
2019-04-28T17:45:57.996Z,54.96
2019-04-28T17:48:32.237Z,55.06
2019-04-28T17:51:02.105Z,55.10
2019-04-28T17:53:31.540Z,55.22
2019-04-28T17:56:01.270Z,55.29
2019-04-28T17:58:30.856Z,55.36
2019-04-28T18:01:04.899Z,55.41
2019-04-28T18:03:52.088Z,55.44
2019-04-28T18:06:23.388Z,55.53
2019-04-28T18:08:53.009Z,55.56
2019-04-28T18:11:22.506Z,55.58
2019-04-28T18:13:51.988Z,55.64
2019-04-28T18:16:39.279Z,55.72
2019-04-28T18:19:10.484Z,55.77
2019-04-28T18:21:40.032Z,55.82
2019-04-28T18:24:09.791Z,55.86
2019-04-28T18:26:39.425Z,55.92
2019-04-28T18:29:09.070Z,56.02
2019-04-28T18:31:56.476Z,56.08
2019-04-28T18:34:27.757Z,56.15
2019-04-28T18:37:05.006Z,56.20
2019-04-28T18:39:36.279Z,56.28
2019-04-28T18:42:19.331Z,56.33
2019-04-28T18:44:48.909Z,56.41
2019-04-28T18:47:18.480Z,56.49
2019-04-28T18:49:47.973Z,56.55
2019-04-28T18:52:17.530Z,56.63
2019-04-28T18:54:47.110Z,56.68
2019-04-28T18:57:16.701Z,56.75
2019-04-28T18:59:46.204Z,56.82
2019-04-28T19:02:17.573Z,56.86
2019-04-28T19:04:46.990Z,56.93
2019-04-28T19:07:18.286Z,56.96
2019-04-28T19:09:49.687Z,57.02
2019-04-28T19:12:21.065Z,57.09
2019-04-28T19:15:08.607Z,57.14
2019-04-28T19:17:42.787Z,57.19
2019-04-28T19:20:13.813Z,57.23
2019-04-28T19:22:47.267Z,57.29
2019-04-28T19:25:17.922Z,57.34
2019-04-28T19:27:47.566Z,57.40
2019-04-28T19:30:17.130Z,57.46
2019-04-28T19:32:46.618Z,57.56
2019-04-28T19:35:16.271Z,57.65
2019-04-28T19:37:45.842Z,57.73
2019-04-28T19:40:15.566Z,57.80
2019-04-28T19:42:45.123Z,57.91
2019-04-28T19:45:16.398Z,58.01
2019-04-28T19:47:45.966Z,58.08
2019-04-28T19:50:15.593Z,58.13
2019-04-28T19:52:45.220Z,58.23
2019-04-28T19:55:22.347Z,58.28
2019-04-28T19:58:05.652Z,58.34
2019-04-28T20:00:52.179Z,58.42
2019-04-28T20:03:21.739Z,58.51
2019-04-28T20:05:51.274Z,58.58
2019-04-28T20:08:21.869Z,58.66
2019-04-28T20:10:51.405Z,58.72
2019-04-28T20:13:20.891Z,58.78
2019-04-28T20:18:48.803Z,58.92
2019-04-28T20:21:19.944Z,59.01
2019-04-28T20:23:49.614Z,59.10
2019-04-28T20:26:19.249Z,59.17
2019-04-28T20:28:48.905Z,59.24
2019-04-28T20:31:18.455Z,59.30
2019-04-28T20:33:48.010Z,59.39
2019-04-28T20:36:19.197Z,59.50
2019-04-28T20:38:50.497Z,59.59
2019-04-28T20:41:24.420Z,59.66
2019-04-28T20:43:55.007Z,59.73
2019-04-28T20:46:24.732Z,59.81
2019-04-28T20:48:54.364Z,59.91
2019-04-28T20:51:23.891Z,59.98
2019-04-28T20:53:53.597Z,60.05
2019-04-28T20:56:23.458Z,60.15
2019-04-28T20:58:52.906Z,60.23
2019-04-28T21:01:22.400Z,60.33
2019-04-28T21:03:52.046Z,60.39
2019-04-28T21:06:21.562Z,60.45
2019-04-28T21:08:50.979Z,60.54
2019-04-28T21:11:20.535Z,60.63
2019-04-28T21:13:50.094Z,60.71
2019-04-28T21:16:19.590Z,60.79
2019-04-28T21:18:48.986Z,60.86
2019-04-28T21:21:18.510Z,60.94
2019-04-28T21:23:47.976Z,60.99
2019-04-28T21:26:17.460Z,61.04
2019-04-28T21:28:47.174Z,61.12
2019-04-28T21:31:16.577Z,61.20
2019-04-28T21:33:46.081Z,61.24
2019-04-28T21:36:16.563Z,61.31
2019-04-28T21:38:47.758Z,61.37
2019-04-28T21:41:18.446Z,61.46
2019-04-28T21:43:52.507Z,61.53
2019-04-28T21:46:23.675Z,61.62
2019-04-28T21:48:54.805Z,61.66
2019-04-28T21:51:24.331Z,61.72
2019-04-28T21:53:53.807Z,61.78
2019-04-28T21:56:23.295Z,61.87
2019-04-28T21:58:52.776Z,61.94
2019-04-28T22:01:23.203Z,62.02
2019-04-28T22:03:52.894Z,62.08
2019-04-28T22:06:22.665Z,62.16
2019-04-28T22:08:52.148Z,62.22
2019-04-28T22:11:21.704Z,62.28
2019-04-28T22:13:51.253Z,62.33
2019-04-28T22:16:20.938Z,62.40
2019-04-28T22:18:50.663Z,62.44
2019-04-28T22:21:21.215Z,62.49
2019-04-28T22:23:52.269Z,62.56
2019-04-28T22:26:39.341Z,62.61
2019-04-28T22:29:08.889Z,62.68
2019-04-28T22:31:38.401Z,62.78
2019-04-28T22:34:07.925Z,62.85
2019-04-28T22:36:37.484Z,62.90
2019-04-28T22:39:08.237Z,62.98
2019-04-28T22:41:39.406Z,63.04
2019-04-28T22:44:09.204Z,63.12
2019-04-28T22:46:38.850Z,63.21
2019-04-28T22:49:08.432Z,63.24
2019-04-28T22:51:38.061Z,63.33
2019-04-28T22:54:09.239Z,63.39
2019-04-28T22:56:40.409Z,63.45
2019-04-28T22:59:11.828Z,63.53
2019-04-28T23:01:45.848Z,63.58
2019-04-28T23:04:17.110Z,63.65
2019-04-28T23:06:46.626Z,63.74
2019-04-28T23:09:17.821Z,63.79
2019-04-28T23:11:47.453Z,63.85
2019-04-28T23:14:16.933Z,63.92
2019-04-28T23:16:46.482Z,63.99
2019-04-28T23:19:17.646Z,64.04
2019-04-28T23:21:48.835Z,64.10
2019-04-28T23:24:18.362Z,64.18
2019-04-28T23:26:47.906Z,64.26
2019-04-28T23:29:17.464Z,64.30
2019-04-28T23:31:47.159Z,64.37
2019-04-28T23:34:16.688Z,64.41
2019-04-28T23:36:46.164Z,64.50
2019-04-28T23:39:15.749Z,64.55
2019-04-28T23:41:46.943Z,64.61
2019-04-28T23:44:16.527Z,64.63
2019-04-28T23:46:56.130Z,64.72
2019-04-28T23:49:27.406Z,64.78
2019-04-28T23:52:01.475Z,64.85
2019-04-28T23:54:31.129Z,64.91
2019-04-28T23:57:00.679Z,64.97
2019-04-28T23:59:30.150Z,65.03
